createdAt,value
2022-08-26T00:01:44.042Z,59.20
2022-08-26T00:04:12.019Z,59.40
2022-08-26T00:06:42.620Z,59.60
2022-08-26T00:09:16.216Z,59.70
2022-08-26T00:11:44.742Z,59.60
2022-08-26T00:14:13.665Z,59.70
2022-08-26T00:16:47.241Z,60.00
2022-08-26T00:19:17.752Z,59.90
2022-08-26T00:21:46.335Z,60.00
2022-08-26T00:24:16.641Z,59.80
2022-08-26T00:26:43.958Z,59.80
2022-08-26T00:29:12.134Z,59.90
2022-08-26T00:31:40.023Z,60.00
2022-08-26T00:34:09.354Z,59.80
2022-08-26T00:36:36.789Z,59.90
2022-08-26T00:39:04.630Z,60.00
2022-08-26T00:41:34.374Z,60.00
2022-08-26T00:44:01.046Z,60.00
2022-08-26T00:46:33.417Z,60.10
2022-08-26T00:49:11.629Z,60.60
2022-08-26T00:51:53.290Z,60.80
2022-08-26T00:54:24.086Z,60.90
2022-08-26T00:57:08.718Z,60.00
2022-08-26T00:59:48.811Z,60.80
2022-08-26T01:02:21.257Z,60.60
2022-08-26T01:04:55.669Z,60.80
2022-08-26T01:07:25.546Z,61.10
2022-08-26T01:09:52.413Z,61.30
2022-08-26T01:12:22.239Z,61.20
2022-08-26T01:14:49.545Z,61.30
2022-08-26T01:17:16.605Z,61.30
2022-08-26T01:19:46.783Z,61.40
2022-08-26T01:22:28.717Z,61.50
2022-08-26T01:24:58.499Z,61.90
2022-08-26T01:27:27.224Z,61.60
2022-08-26T01:30:00.888Z,61.60
2022-08-26T01:32:31.226Z,61.70
2022-08-26T01:34:59.010Z,61.70
2022-08-26T01:37:29.906Z,61.90
2022-08-26T01:39:57.737Z,62.10
2022-08-26T01:42:27.315Z,62.00
2022-08-26T01:45:12.155Z,62.20
2022-08-26T01:47:38.994Z,62.50
2022-08-26T01:50:15.754Z,62.30
2022-08-26T01:52:55.918Z,62.50
2022-08-26T01:55:32.263Z,62.30
2022-08-26T01:58:04.552Z,62.40
2022-08-26T02:00:34.214Z,62.60
2022-08-26T02:03:17.817Z,62.80
2022-08-26T02:06:05.506Z,62.70
2022-08-26T02:08:43.343Z,63.20
2022-08-26T02:11:10.950Z,63.00
2022-08-26T02:13:44.973Z,62.90
2022-08-26T02:16:13.028Z,63.00
2022-08-26T02:18:42.061Z,62.90
2022-08-26T02:21:11.790Z,63.10
2022-08-26T02:23:39.692Z,63.00
2022-08-26T02:26:21.573Z,63.10
2022-08-26T02:29:03.821Z,63.30
2022-08-26T02:31:31.276Z,63.70
2022-08-26T02:34:13.951Z,63.10
2022-08-26T02:36:42.319Z,63.80
2022-08-26T02:39:09.263Z,63.30
2022-08-26T02:41:36.278Z,63.40
2022-08-26T02:44:12.191Z,63.40
2022-08-26T02:46:39.337Z,63.50
2022-08-26T02:49:06.879Z,63.50
2022-08-26T02:51:33.857Z,63.70
2022-08-26T02:54:00.578Z,63.80
2022-08-26T02:56:29.235Z,63.80
2022-08-26T02:58:56.403Z,64.10
2022-08-26T03:01:29.927Z,64.10
2022-08-26T03:03:57.526Z,64.70
2022-08-26T03:06:24.984Z,64.40
2022-08-26T03:08:52.563Z,64.50
2022-08-26T03:11:19.943Z,64.70
2022-08-26T03:13:46.644Z,64.90
2022-08-26T03:16:14.369Z,64.90
2022-08-26T03:18:41.745Z,65.10
2022-08-26T03:21:11.758Z,65.40
2022-08-26T03:23:39.645Z,65.60
2022-08-26T03:26:07.053Z,65.70
2022-08-26T03:28:58.017Z,65.80
2022-08-26T03:31:25.250Z,66.00
2022-08-26T03:33:52.851Z,66.00
2022-08-26T03:36:22.171Z,66.10
2022-08-26T03:38:49.094Z,66.50
2022-08-26T03:41:17.509Z,66.60
2022-08-26T03:43:44.854Z,66.80
2022-08-26T03:46:12.315Z,66.90
2022-08-26T03:48:39.609Z,66.90
2022-08-26T03:51:14.141Z,66.80
2022-08-26T03:53:46.197Z,67.50
2022-08-26T03:56:12.892Z,67.20
2022-08-26T03:58:39.566Z,67.20
2022-08-26T04:01:09.483Z,67.20
2022-08-26T04:03:54.939Z,67.60
2022-08-26T04:06:21.662Z,67.70
2022-08-26T04:08:48.399Z,67.80
2022-08-26T04:11:19.828Z,68.20
2022-08-26T04:13:47.862Z,68.60
2022-08-26T04:16:18.052Z,68.50
2022-08-26T04:18:46.517Z,68.60
2022-08-26T04:21:15.239Z,68.70
2022-08-26T04:23:47.784Z,69.00
2022-08-26T04:26:16.007Z,69.00
2022-08-26T04:28:42.917Z,69.30
2022-08-26T04:31:14.757Z,69.40
2022-08-26T04:33:43.776Z,70.00
2022-08-26T04:36:10.778Z,69.70
2022-08-26T04:38:37.691Z,70.00
2022-08-26T04:41:07.019Z,70.10
2022-08-26T04:43:42.571Z,70.10
2022-08-26T04:46:10.097Z,70.50
2022-08-26T04:48:40.813Z,70.60
2022-08-26T04:51:07.668Z,70.80
2022-08-26T04:53:34.743Z,71.00
2022-08-26T04:56:01.509Z,71.10
2022-08-26T04:58:31.083Z,71.40
2022-08-26T05:00:58.354Z,71.60
2022-08-26T05:03:27.020Z,72.70
2022-08-26T05:05:54.186Z,72.10
2022-08-26T05:08:22.979Z,72.40
2022-08-26T05:10:55.842Z,72.80
2022-08-26T05:13:25.082Z,73.10
2022-08-26T05:15:52.398Z,73.30
2022-08-26T05:18:22.953Z,73.30
2022-08-26T05:20:53.924Z,73.90
2022-08-26T05:23:22.796Z,74.00
2022-08-26T05:25:58.984Z,73.70
2022-08-26T05:28:29.853Z,74.50
2022-08-26T05:30:57.199Z,74.50
2022-08-26T05:33:24.152Z,74.70
2022-08-26T05:35:50.991Z,74.90
2022-08-26T05:38:20.838Z,75.10
2022-08-26T05:40:50.470Z,75.40
2022-08-26T05:43:21.324Z,75.40
2022-08-26T05:45:50.450Z,75.70
2022-08-26T05:48:24.431Z,75.80
2022-08-26T05:50:53.130Z,75.90
2022-08-26T05:53:22.203Z,75.90
2022-08-26T05:55:52.803Z,75.90
2022-08-26T05:58:21.364Z,76.20
2022-08-26T06:01:04.244Z,76.40
2022-08-26T06:03:36.973Z,77.30
2022-08-26T06:06:06.289Z,77.10
2022-08-26T06:08:34.592Z,76.90
2022-08-26T06:11:04.379Z,76.70
2022-08-26T06:13:33.458Z,76.70
2022-08-26T06:16:05.602Z,76.80
2022-08-26T06:18:36.236Z,77.40
2022-08-26T06:21:12.647Z,77.30
2022-08-26T06:23:58.167Z,78.20
2022-08-26T06:26:25.996Z,77.50
2022-08-26T06:28:53.052Z,77.50
2022-08-26T06:31:19.784Z,77.40
2022-08-26T06:33:46.836Z,77.50
2022-08-26T06:36:19.232Z,77.80
2022-08-26T06:38:50.719Z,78.30
2022-08-26T06:41:20.865Z,78.10
2022-08-26T06:43:47.740Z,78.20
2022-08-26T06:46:20.001Z,78.20
2022-08-26T06:51:43.452Z,79.20
2022-08-26T06:54:10.933Z,78.50
2022-08-26T06:56:43.169Z,78.60
2022-08-26T06:59:11.555Z,79.40
2022-08-26T07:01:44.791Z,79.20
2022-08-26T07:04:14.583Z,79.40
2022-08-26T07:06:50.109Z,79.30
2022-08-26T07:09:24.954Z,79.50
2022-08-26T07:11:52.804Z,79.40
2022-08-26T07:14:21.469Z,79.30
2022-08-26T07:16:49.601Z,79.40
2022-08-26T07:19:29.861Z,79.40
2022-08-26T07:21:57.635Z,79.70
2022-08-26T07:24:24.300Z,79.60
2022-08-26T07:26:59.144Z,79.70
2022-08-26T07:29:26.058Z,80.10
2022-08-26T07:31:53.545Z,79.90
2022-08-26T07:34:23.967Z,80.00
2022-08-26T07:36:51.509Z,80.30
2022-08-26T07:39:18.962Z,80.10
2022-08-26T07:41:47.210Z,80.20
2022-08-26T07:44:14.968Z,79.90
2022-08-26T07:46:42.123Z,80.00
2022-08-26T07:49:12.044Z,80.10
2022-08-26T07:51:39.646Z,80.30
2022-08-26T07:54:07.187Z,80.40
2022-08-26T07:56:34.118Z,80.30
2022-08-26T07:59:01.233Z,80.10
2022-08-26T08:01:31.359Z,80.40
2022-08-26T08:04:00.325Z,80.20
2022-08-26T08:06:29.146Z,80.20
2022-08-26T08:08:56.240Z,80.20
2022-08-26T08:11:24.566Z,80.20
2022-08-26T08:13:56.543Z,80.10
2022-08-26T08:16:32.116Z,80.20
2022-08-26T08:18:59.489Z,80.40
2022-08-26T08:21:28.152Z,80.20
2022-08-26T08:23:56.943Z,80.40
2022-08-26T08:26:25.049Z,80.40
2022-08-26T08:28:55.938Z,80.60
2022-08-26T08:31:52.441Z,80.80
2022-08-26T08:34:12.839Z,80.90
2022-08-26T08:36:39.731Z,80.60
2022-08-26T08:39:07.022Z,80.70
2022-08-26T08:41:41.461Z,80.80
2022-08-26T08:44:14.370Z,82.10
2022-08-26T08:46:44.250Z,80.80
2022-08-26T08:49:13.620Z,81.00
2022-08-26T08:51:59.396Z,81.10
2022-08-26T08:54:26.796Z,81.20
2022-08-26T08:56:59.716Z,81.00
2022-08-26T08:59:32.592Z,81.40
2022-08-26T09:02:31.956Z,80.90
2022-08-26T09:05:28.422Z,81.40
2022-08-26T09:08:03.994Z,81.20
2022-08-26T09:10:54.224Z,81.20
2022-08-26T09:13:25.287Z,81.60
2022-08-26T09:16:10.073Z,81.10
2022-08-26T09:18:59.260Z,81.70
2022-08-26T09:21:26.775Z,81.70
2022-08-26T09:23:57.000Z,81.20
2022-08-26T09:26:30.657Z,81.20
2022-08-26T09:29:05.366Z,81.10
2022-08-26T09:31:37.650Z,81.10
2022-08-26T09:34:24.415Z,80.90
2022-08-26T09:36:59.601Z,81.10
2022-08-26T09:39:29.090Z,80.70
2022-08-26T09:42:04.264Z,80.60
2022-08-26T09:44:32.989Z,80.40
2022-08-26T09:47:06.368Z,80.40
2022-08-26T09:49:38.752Z,80.50
2022-08-26T09:52:10.233Z,80.40
2022-08-26T09:54:38.563Z,80.30
2022-08-26T09:57:20.984Z,80.20
2022-08-26T09:59:49.413Z,80.20
2022-08-26T10:02:22.270Z,80.10
2022-08-26T10:04:55.365Z,80.10
2022-08-26T10:07:44.625Z,80.40
2022-08-26T10:10:16.832Z,80.20
2022-08-26T10:13:08.827Z,80.00
2022-08-26T10:15:51.208Z,80.20
2022-08-26T10:18:25.002Z,80.10
2022-08-26T10:21:08.805Z,80.10
2022-08-26T10:23:57.696Z,80.00
2022-08-26T10:26:32.680Z,79.50
2022-08-26T10:29:06.247Z,79.10
2022-08-26T10:31:48.601Z,79.00
2022-08-26T10:34:18.827Z,79.00
2022-08-26T10:37:15.206Z,78.80
2022-08-26T10:39:58.906Z,78.80
2022-08-26T10:42:37.750Z,78.30
2022-08-26T10:45:25.578Z,78.30
2022-08-26T10:48:06.798Z,79.10
2022-08-26T10:50:41.724Z,78.00
2022-08-26T10:53:33.977Z,77.70
2022-08-26T10:56:15.656Z,77.70
2022-08-26T10:59:23.134Z,77.70
2022-08-26T11:02:07.044Z,77.50
2022-08-26T11:05:05.709Z,77.30
2022-08-26T11:07:40.974Z,76.90
2022-08-26T11:10:42.907Z,76.50
2022-08-26T11:13:10.337Z,76.40
2022-08-26T11:15:40.720Z,76.20
2022-08-26T11:18:37.316Z,76.20
2022-08-26T11:21:44.704Z,76.00
2022-08-26T11:25:02.852Z,75.50
2022-08-26T11:27:35.458Z,75.20
2022-08-26T11:30:06.867Z,75.20
2022-08-26T11:32:34.303Z,75.40
2022-08-26T11:35:07.879Z,75.10
2022-08-26T11:37:42.519Z,74.80
2022-08-26T11:40:19.163Z,74.20
2022-08-26T11:42:54.821Z,74.70
2022-08-26T11:45:26.981Z,74.30
2022-08-26T11:47:54.728Z,74.10
2022-08-26T11:50:27.491Z,74.20
2022-08-26T11:53:04.095Z,74.00
2022-08-26T11:55:35.865Z,74.70
2022-08-26T11:58:06.371Z,74.00
2022-08-26T12:00:39.806Z,73.70
2022-08-26T12:03:20.931Z,72.90
2022-08-26T12:05:51.967Z,72.30
2022-08-26T12:08:23.130Z,72.10
2022-08-26T12:11:03.175Z,71.60
2022-08-26T12:13:30.102Z,71.50
2022-08-26T12:16:00.080Z,71.90
2022-08-26T12:18:35.314Z,71.40
2022-08-26T12:21:19.036Z,70.80
2022-08-26T12:23:49.981Z,70.50
2022-08-26T12:26:28.443Z,70.30
2022-08-26T12:29:01.154Z,69.80
2022-08-26T12:31:35.050Z,69.80
2022-08-26T12:34:04.802Z,69.30
2022-08-26T12:36:38.537Z,69.30
2022-08-26T12:39:07.827Z,68.70
2022-08-26T12:41:49.498Z,68.30
2022-08-26T12:44:36.708Z,68.40
2022-08-26T12:47:05.840Z,68.30
2022-08-26T12:49:32.567Z,68.70
2022-08-26T12:51:59.263Z,68.60
2022-08-26T12:54:46.343Z,68.60
2022-08-26T12:57:13.584Z,68.50
2022-08-26T12:59:40.326Z,68.40
2022-08-26T13:02:07.102Z,68.30
2022-08-26T13:04:37.056Z,68.10
2022-08-26T13:07:21.908Z,67.90
2022-08-26T13:09:50.587Z,67.80
2022-08-26T13:12:43.557Z,67.90
2022-08-26T13:15:10.242Z,67.80
2022-08-26T13:17:37.613Z,67.70
2022-08-26T13:20:04.796Z,67.70
2022-08-26T13:22:32.036Z,67.50
2022-08-26T13:24:58.946Z,67.70
2022-08-26T13:27:27.072Z,67.60
2022-08-26T13:29:54.764Z,67.50
2022-08-26T13:32:22.420Z,67.70
2022-08-26T13:34:54.651Z,67.50
2022-08-26T13:37:22.250Z,67.60
2022-08-26T13:40:00.756Z,67.50
2022-08-26T13:42:27.606Z,67.40
2022-08-26T13:44:57.828Z,67.40
2022-08-26T13:47:25.767Z,67.30
2022-08-26T13:49:54.564Z,67.40
2022-08-26T13:52:30.661Z,67.40
2022-08-26T13:54:59.976Z,67.30
2022-08-26T13:57:28.261Z,67.20
2022-08-26T13:59:56.404Z,67.20
2022-08-26T14:02:23.197Z,67.10
2022-08-26T14:04:50.035Z,67.10
2022-08-26T14:07:16.746Z,67.00
2022-08-26T14:09:43.435Z,67.10
2022-08-26T14:12:10.131Z,67.40
2022-08-26T14:14:36.810Z,67.30
2022-08-26T14:17:03.626Z,67.20
2022-08-26T14:19:31.355Z,67.30
2022-08-26T14:22:00.500Z,67.10
2022-08-26T14:24:27.490Z,67.00
2022-08-26T14:26:54.190Z,67.10
2022-08-26T14:29:20.891Z,67.10
2022-08-26T14:31:48.248Z,67.30
2022-08-26T14:34:15.321Z,67.40
2022-08-26T14:36:42.323Z,67.20
2022-08-26T14:39:12.013Z,67.20
2022-08-26T14:41:45.081Z,67.40
2022-08-26T14:44:14.730Z,67.40
2022-08-26T14:46:52.743Z,67.40
2022-08-26T14:49:20.933Z,67.70
2022-08-26T14:51:48.248Z,67.60
2022-08-26T14:54:16.368Z,67.70
2022-08-26T14:56:48.643Z,67.50
2022-08-26T14:59:17.826Z,67.60
2022-08-26T15:01:45.353Z,67.60
2022-08-26T15:04:12.499Z,67.70
2022-08-26T15:06:39.288Z,67.90
2022-08-26T15:09:06.081Z,67.90
2022-08-26T15:11:32.956Z,67.80
2022-08-26T15:13:59.897Z,67.80
2022-08-26T15:16:28.171Z,68.00
2022-08-26T15:18:55.602Z,67.90
2022-08-26T15:21:22.612Z,67.80
2022-08-26T15:23:50.200Z,67.90
2022-08-26T15:26:17.521Z,67.80
2022-08-26T15:28:45.150Z,67.60
2022-08-26T15:31:12.150Z,67.50
2022-08-26T15:33:39.516Z,67.40
2022-08-26T15:36:07.465Z,67.30
2022-08-26T15:38:40.066Z,67.30
2022-08-26T15:41:08.438Z,67.30
2022-08-26T15:43:36.730Z,67.30
2022-08-26T15:46:04.088Z,67.40
2022-08-26T15:48:30.873Z,67.40
2022-08-26T15:51:00.159Z,67.60
2022-08-26T15:53:29.468Z,67.90
2022-08-26T15:55:58.122Z,68.00
2022-08-26T15:58:27.350Z,68.20
2022-08-26T16:00:55.321Z,68.20
2022-08-26T16:03:22.586Z,68.30
2022-08-26T16:05:49.636Z,68.40
2022-08-26T16:08:16.872Z,68.80
2022-08-26T16:10:50.318Z,69.00
2022-08-26T16:13:19.813Z,68.90
2022-08-26T16:15:47.588Z,69.00
2022-08-26T16:18:15.761Z,69.80
2022-08-26T16:21:08.818Z,68.90
2022-08-26T16:23:37.416Z,69.40
2022-08-26T16:26:17.506Z,69.20
2022-08-26T16:28:44.639Z,69.70
2022-08-26T16:31:12.408Z,69.30
2022-08-26T16:33:39.512Z,69.20
2022-08-26T16:36:07.584Z,69.20
2022-08-26T16:38:35.405Z,69.40
2022-08-26T16:41:02.382Z,69.40
2022-08-26T16:43:29.180Z,69.50
2022-08-26T16:45:56.422Z,69.40
2022-08-26T16:48:23.648Z,69.50
2022-08-26T16:50:51.269Z,69.40
2022-08-26T16:53:18.658Z,69.40
2022-08-26T16:55:47.364Z,69.50
2022-08-26T16:58:14.579Z,69.40
2022-08-26T17:00:41.320Z,69.40
2022-08-26T17:03:08.313Z,69.60
2022-08-26T17:05:36.186Z,69.80
2022-08-26T17:08:03.835Z,69.90
2022-08-26T17:10:30.814Z,70.10
2022-08-26T17:12:57.683Z,70.10
2022-08-26T17:15:25.164Z,70.40
2022-08-26T17:17:53.337Z,70.50
2022-08-26T17:20:22.250Z,70.90
2022-08-26T17:22:50.682Z,70.90
2022-08-26T17:25:21.764Z,70.90
2022-08-26T17:27:48.565Z,71.10
2022-08-26T17:30:16.483Z,71.10
2022-08-26T17:32:43.256Z,71.30
2022-08-26T17:35:12.963Z,71.30
2022-08-26T17:37:40.616Z,71.40
2022-08-26T17:40:10.727Z,71.50
2022-08-26T17:42:38.940Z,71.60
2022-08-26T17:45:07.223Z,71.70
2022-08-26T17:47:34.569Z,71.90
2022-08-26T17:50:01.554Z,71.90
2022-08-26T17:52:29.222Z,72.10
2022-08-26T17:54:57.054Z,72.00
2022-08-26T17:57:24.447Z,72.10
2022-08-26T17:59:51.489Z,72.10
2022-08-26T18:02:20.909Z,72.00
2022-08-26T18:04:47.877Z,72.00
2022-08-26T18:07:15.043Z,72.00
2022-08-26T18:09:41.741Z,72.20
2022-08-26T18:12:08.564Z,72.20
2022-08-26T18:14:35.383Z,72.30
2022-08-26T18:17:02.066Z,72.40
2022-08-26T18:19:29.657Z,72.40
2022-08-26T18:21:56.719Z,72.60
2022-08-26T18:24:23.433Z,72.70
2022-08-26T18:26:50.952Z,72.80
2022-08-26T18:29:19.325Z,73.00
2022-08-26T18:31:46.620Z,73.20
2022-08-26T18:34:15.324Z,73.10
2022-08-26T18:36:42.784Z,72.90
2022-08-26T18:39:10.493Z,73.10
2022-08-26T18:41:46.878Z,73.20
2022-08-26T18:44:16.050Z,73.60
2022-08-26T18:46:44.229Z,73.70
2022-08-26T18:49:15.586Z,73.80
2022-08-26T18:51:43.443Z,74.00
2022-08-26T18:54:11.522Z,74.10
2022-08-26T18:56:39.749Z,74.30
2022-08-26T18:59:08.120Z,74.50
2022-08-26T19:01:36.553Z,75.20
2022-08-26T19:04:05.603Z,74.50
2022-08-26T19:06:35.363Z,74.60
2022-08-26T19:09:04.348Z,74.70
2022-08-26T19:11:32.204Z,74.70
2022-08-26T19:14:09.011Z,74.80
2022-08-26T19:16:37.284Z,74.90
2022-08-26T19:19:04.498Z,75.00
2022-08-26T19:21:33.107Z,75.00
2022-08-26T19:24:02.705Z,75.30
2022-08-26T19:26:30.941Z,75.20
2022-08-26T19:28:58.443Z,75.40
2022-08-26T19:31:25.960Z,75.70
2022-08-26T19:33:52.842Z,75.80
2022-08-26T19:36:23.615Z,76.00
2022-08-26T19:38:50.402Z,76.10
2022-08-26T19:41:37.597Z,76.20
2022-08-26T19:44:12.772Z,76.80
2022-08-26T19:46:39.806Z,76.90
2022-08-26T19:49:06.693Z,76.40
2022-08-26T19:51:35.636Z,76.60
2022-08-26T19:54:02.455Z,77.00
2022-08-26T19:56:29.500Z,76.90
2022-08-26T19:58:56.582Z,76.90
2022-08-26T20:01:23.895Z,76.90
2022-08-26T20:03:50.710Z,77.10
2022-08-26T20:06:18.480Z,77.30
2022-08-26T20:08:45.905Z,77.40
2022-08-26T20:11:17.195Z,77.40
2022-08-26T20:13:47.285Z,77.90
2022-08-26T20:16:15.269Z,77.80
2022-08-26T20:19:02.114Z,77.90
2022-08-26T20:21:32.990Z,78.00
2022-08-26T20:24:12.252Z,78.40
2022-08-26T20:26:41.252Z,78.30
2022-08-26T20:29:09.363Z,78.20
2022-08-26T20:31:36.689Z,78.50
2022-08-26T20:34:04.561Z,78.80
2022-08-26T20:36:32.126Z,79.00
2022-08-26T20:38:58.895Z,79.30
2022-08-26T20:41:26.377Z,79.50
2022-08-26T20:43:53.901Z,79.60
2022-08-26T20:46:24.669Z,80.70
2022-08-26T20:48:53.216Z,80.10
2022-08-26T20:51:22.782Z,80.50
2022-08-26T20:53:50.277Z,81.00
2022-08-26T20:56:22.107Z,81.10
2022-08-26T20:58:49.292Z,81.50
2022-08-26T21:01:30.585Z,81.60
2022-08-26T21:03:57.602Z,82.60
2022-08-26T21:06:24.538Z,82.40
2022-08-26T21:08:51.379Z,82.70
2022-08-26T21:11:20.059Z,83.10
2022-08-26T21:16:36.065Z,83.70
2022-08-26T21:19:05.710Z,84.10
2022-08-26T21:21:32.574Z,84.80
2022-08-26T21:23:59.575Z,85.00
2022-08-26T21:26:26.568Z,85.20
2022-08-26T21:28:54.024Z,85.20
2022-08-26T21:31:23.539Z,85.30
2022-08-26T21:33:50.914Z,85.90
2022-08-26T21:36:18.785Z,86.10
2022-08-26T21:38:45.772Z,86.70
2022-08-26T21:41:20.687Z,86.80
2022-08-26T21:43:48.827Z,87.70
2022-08-26T21:46:18.858Z,87.10
2022-08-26T21:48:59.575Z,87.40
2022-08-26T21:51:32.348Z,88.30
2022-08-26T21:54:00.599Z,88.60
2022-08-26T21:56:31.468Z,87.90
2022-08-26T21:58:59.514Z,88.20
2022-08-26T22:01:31.651Z,88.50
2022-08-26T22:03:58.690Z,88.50
2022-08-26T22:06:27.467Z,88.50
2022-08-26T22:08:54.647Z,88.90
2022-08-26T22:11:21.906Z,89.00
2022-08-26T22:13:49.205Z,89.00
2022-08-26T22:16:15.996Z,89.30
2022-08-26T22:18:45.714Z,89.20
2022-08-26T22:21:17.095Z,89.40
2022-08-26T22:23:44.518Z,89.40
2022-08-26T22:26:13.437Z,89.30
2022-08-26T22:28:40.901Z,89.60
2022-08-26T22:31:11.109Z,89.60
2022-08-26T22:33:38.877Z,89.50
2022-08-26T22:36:06.373Z,89.50
2022-08-26T22:38:33.054Z,89.70
2022-08-26T22:41:00.596Z,89.70
2022-08-26T22:43:28.961Z,89.90
2022-08-26T22:45:56.475Z,90.00
2022-08-26T22:48:25.470Z,90.00
2022-08-26T22:50:58.258Z,90.10
2022-08-26T22:53:27.017Z,90.10
2022-08-26T22:55:54.321Z,90.10
2022-08-26T22:58:21.285Z,90.10
2022-08-26T23:00:57.785Z,90.10
2022-08-26T23:03:27.159Z,90.20
2022-08-26T23:05:55.491Z,90.10
2022-08-26T23:08:23.133Z,90.30
2022-08-26T23:10:50.645Z,90.10
2022-08-26T23:13:18.242Z,90.10
2022-08-26T23:15:45.923Z,90.30
2022-08-26T23:18:14.486Z,90.20
2022-08-26T23:20:42.278Z,90.20
2022-08-26T23:23:09.422Z,90.20
2022-08-26T23:25:36.075Z,90.20
2022-08-26T23:28:03.093Z,90.30
2022-08-26T23:30:32.177Z,90.30
2022-08-26T23:32:58.993Z,90.40
2022-08-26T23:35:26.589Z,90.30
2022-08-26T23:37:53.598Z,90.30
2022-08-26T23:40:25.154Z,90.20
2022-08-26T23:42:53.657Z,90.20
2022-08-26T23:45:21.281Z,90.20
2022-08-26T23:47:50.457Z,90.30
2022-08-26T23:50:19.761Z,90.30
2022-08-26T23:53:05.603Z,90.40
2022-08-26T23:55:39.369Z,90.20
2022-08-26T23:58:06.456Z,90.40
